sensor_id;sensor_type;location;lat;lon;timestamp;P1;durP1;ratioP1;P2;durP2;ratioP2
49015;SDS011;34830;44.064;12.566;2022-12-24T00:02:14;120.20;;;41.30;;
49015;SDS011;34830;44.064;12.566;2022-12-24T00:04:40;125.95;;;39.33;;
49015;SDS011;34830;44.064;12.566;2022-12-24T00:07:06;131.27;;;38.78;;
49015;SDS011;34830;44.064;12.566;2022-12-24T00:09:32;120.75;;;41.45;;
49015;SDS011;34830;44.064;12.566;2022-12-24T00:11:58;121.75;;;39.80;;
49015;SDS011;34830;44.064;12.566;2022-12-24T00:14:24;115.88;;;40.38;;
49015;SDS011;34830;44.064;12.566;2022-12-24T00:16:50;110.30;;;40.15;;
49015;SDS011;34830;44.064;12.566;2022-12-24T00:19:16;124.68;;;40.13;;
49015;SDS011;34830;44.064;12.566;2022-12-24T00:21:42;112.25;;;39.13;;
49015;SDS011;34830;44.064;12.566;2022-12-24T00:24:08;134.25;;;40.35;;
49015;SDS011;34830;44.064;12.566;2022-12-24T00:26:35;130.15;;;43.30;;
49015;SDS011;34830;44.064;12.566;2022-12-24T00:29:01;121.28;;;39.47;;
49015;SDS011;34830;44.064;12.566;2022-12-24T00:31:27;112.93;;;37.47;;
49015;SDS011;34830;44.064;12.566;2022-12-24T00:33:53;114.53;;;37.50;;
49015;SDS011;34830;44.064;12.566;2022-12-24T00:36:19;105.18;;;42.72;;
49015;SDS011;34830;44.064;12.566;2022-12-24T00:38:45;101.43;;;35.65;;
49015;SDS011;34830;44.064;12.566;2022-12-24T00:41:12;100.95;;;36.45;;
49015;SDS011;34830;44.064;12.566;2022-12-24T00:43:54;96.65;;;34.33;;
49015;SDS011;34830;44.064;12.566;2022-12-24T00:46:22;101.00;;;34.22;;
49015;SDS011;34830;44.064;12.566;2022-12-24T00:48:50;116.35;;;38.15;;
49015;SDS011;34830;44.064;12.566;2022-12-24T00:51:16;105.55;;;36.08;;
49015;SDS011;34830;44.064;12.566;2022-12-24T00:53:42;102.30;;;34.97;;
49015;SDS011;34830;44.064;12.566;2022-12-24T00:56:08;114.82;;;46.15;;
49015;SDS011;34830;44.064;12.566;2022-12-24T00:58:35;99.20;;;33.17;;
49015;SDS011;34830;44.064;12.566;2022-12-24T01:01:01;93.32;;;35.28;;
49015;SDS011;34830;44.064;12.566;2022-12-24T01:03:27;95.05;;;34.10;;
49015;SDS011;34830;44.064;12.566;2022-12-24T01:06:07;88.68;;;32.95;;
49015;SDS011;34830;44.064;12.566;2022-12-24T01:08:35;97.07;;;30.77;;
49015;SDS011;34830;44.064;12.566;2022-12-24T01:11:02;89.88;;;32.03;;
49015;SDS011;34830;44.064;12.566;2022-12-24T01:13:28;95.50;;;32.42;;
49015;SDS011;34830;44.064;12.566;2022-12-24T01:15:55;94.10;;;32.22;;
49015;SDS011;34830;44.064;12.566;2022-12-24T01:18:21;99.57;;;31.35;;
49015;SDS011;34830;44.064;12.566;2022-12-24T01:20:57;85.85;;;31.10;;
49015;SDS011;34830;44.064;12.566;2022-12-24T01:23:25;88.28;;;29.98;;
49015;SDS011;34830;44.064;12.566;2022-12-24T01:25:51;90.15;;;31.55;;
49015;SDS011;34830;44.064;12.566;2022-12-24T01:28:18;91.75;;;30.48;;
49015;SDS011;34830;44.064;12.566;2022-12-24T01:30:44;79.50;;;27.85;;
49015;SDS011;34830;44.064;12.566;2022-12-24T01:33:11;81.68;;;29.52;;
49015;SDS011;34830;44.064;12.566;2022-12-24T01:35:38;92.45;;;30.75;;
49015;SDS011;34830;44.064;12.566;2022-12-24T01:38:05;82.22;;;28.63;;
49015;SDS011;34830;44.064;12.566;2022-12-24T01:40:31;81.10;;;31.65;;
49015;SDS011;34830;44.064;12.566;2022-12-24T01:43:16;91.40;;;30.05;;
49015;SDS011;34830;44.064;12.566;2022-12-24T01:45:51;104.32;;;35.13;;
49015;SDS011;34830;44.064;12.566;2022-12-24T01:50:55;112.25;;;34.00;;
49015;SDS011;34830;44.064;12.566;2022-12-24T01:53:24;98.90;;;35.17;;
49015;SDS011;34830;44.064;12.566;2022-12-24T01:55:50;108.50;;;36.38;;
49015;SDS011;34830;44.064;12.566;2022-12-24T01:58:16;112.75;;;37.55;;
49015;SDS011;34830;44.064;12.566;2022-12-24T02:00:43;108.57;;;34.90;;
49015;SDS011;34830;44.064;12.566;2022-12-24T02:03:09;110.90;;;36.55;;
49015;SDS011;34830;44.064;12.566;2022-12-24T02:05:46;104.50;;;36.80;;
49015;SDS011;34830;44.064;12.566;2022-12-24T02:08:14;100.07;;;35.45;;
49015;SDS011;34830;44.064;12.566;2022-12-24T02:10:41;104.75;;;35.10;;
49015;SDS011;34830;44.064;12.566;2022-12-24T02:13:07;109.60;;;35.72;;
49015;SDS011;34830;44.064;12.566;2022-12-24T02:15:38;114.15;;;36.20;;
49015;SDS011;34830;44.064;12.566;2022-12-24T02:18:25;100.10;;;33.47;;
49015;SDS011;34830;44.064;12.566;2022-12-24T02:26:47;99.50;;;35.55;;
49015;SDS011;34830;44.064;12.566;2022-12-24T02:32:23;108.82;;;34.55;;
49015;SDS011;34830;44.064;12.566;2022-12-24T02:34:52;121.80;;;38.05;;
49015;SDS011;34830;44.064;12.566;2022-12-24T02:37:25;97.00;;;33.55;;
49015;SDS011;34830;44.064;12.566;2022-12-24T02:42:40;133.95;;;41.47;;
49015;SDS011;34830;44.064;12.566;2022-12-24T02:45:08;120.32;;;36.95;;
49015;SDS011;34830;44.064;12.566;2022-12-24T02:47:39;132.02;;;39.55;;
49015;SDS011;34830;44.064;12.566;2022-12-24T02:50:08;125.60;;;39.38;;
49015;SDS011;34830;44.064;12.566;2022-12-24T02:52:36;131.65;;;36.63;;
49015;SDS011;34830;44.064;12.566;2022-12-24T02:55:15;138.95;;;40.15;;
49015;SDS011;34830;44.064;12.566;2022-12-24T03:00:18;143.38;;;42.75;;
49015;SDS011;34830;44.064;12.566;2022-12-24T03:05:36;140.15;;;40.47;;
49015;SDS011;34830;44.064;12.566;2022-12-24T03:08:13;155.43;;;43.28;;
49015;SDS011;34830;44.064;12.566;2022-12-24T03:10:51;145.63;;;41.03;;
49015;SDS011;34830;44.064;12.566;2022-12-24T03:13:20;157.52;;;39.90;;
49015;SDS011;34830;44.064;12.566;2022-12-24T03:15:47;132.77;;;39.15;;
49015;SDS011;34830;44.064;12.566;2022-12-24T03:18:16;143.75;;;37.88;;
49015;SDS011;34830;44.064;12.566;2022-12-24T03:20:46;134.73;;;41.97;;
49015;SDS011;34830;44.064;12.566;2022-12-24T03:23:15;135.40;;;37.05;;
49015;SDS011;34830;44.064;12.566;2022-12-24T03:25:42;130.57;;;37.22;;
49015;SDS011;34830;44.064;12.566;2022-12-24T03:28:11;135.57;;;37.03;;
49015;SDS011;34830;44.064;12.566;2022-12-24T03:30:42;134.50;;;38.03;;
49015;SDS011;34830;44.064;12.566;2022-12-24T03:33:10;110.22;;;34.20;;
49015;SDS011;34830;44.064;12.566;2022-12-24T03:35:36;113.53;;;32.50;;
49015;SDS011;34830;44.064;12.566;2022-12-24T03:38:02;104.45;;;32.85;;
49015;SDS011;34830;44.064;12.566;2022-12-24T03:40:29;96.05;;;31.10;;
49015;SDS011;34830;44.064;12.566;2022-12-24T03:42:55;98.05;;;31.90;;
49015;SDS011;34830;44.064;12.566;2022-12-24T03:45:21;93.10;;;30.17;;
49015;SDS011;34830;44.064;12.566;2022-12-24T03:47:48;107.38;;;33.13;;
49015;SDS011;34830;44.064;12.566;2022-12-24T03:50:14;99.43;;;30.55;;
49015;SDS011;34830;44.064;12.566;2022-12-24T03:52:40;85.95;;;29.92;;
49015;SDS011;34830;44.064;12.566;2022-12-24T03:55:06;93.25;;;30.10;;
49015;SDS011;34830;44.064;12.566;2022-12-24T03:57:33;96.15;;;31.42;;
49015;SDS011;34830;44.064;12.566;2022-12-24T03:59:59;88.97;;;29.15;;
49015;SDS011;34830;44.064;12.566;2022-12-24T04:02:25;90.28;;;30.02;;
49015;SDS011;34830;44.064;12.566;2022-12-24T04:04:51;94.90;;;30.90;;
49015;SDS011;34830;44.064;12.566;2022-12-24T04:07:17;95.75;;;31.25;;
49015;SDS011;34830;44.064;12.566;2022-12-24T04:09:43;84.90;;;29.63;;
49015;SDS011;34830;44.064;12.566;2022-12-24T04:12:09;91.32;;;29.25;;
49015;SDS011;34830;44.064;12.566;2022-12-24T04:14:35;99.32;;;28.65;;
49015;SDS011;34830;44.064;12.566;2022-12-24T04:17:01;89.55;;;29.67;;
49015;SDS011;34830;44.064;12.566;2022-12-24T04:19:27;89.47;;;30.58;;
49015;SDS011;34830;44.064;12.566;2022-12-24T04:21:53;89.30;;;27.88;;
49015;SDS011;34830;44.064;12.566;2022-12-24T04:24:19;79.53;;;28.85;;
49015;SDS011;34830;44.064;12.566;2022-12-24T04:26:45;90.57;;;29.80;;
49015;SDS011;34830;44.064;12.566;2022-12-24T04:29:11;90.15;;;30.42;;
49015;SDS011;34830;44.064;12.566;2022-12-24T04:31:37;86.78;;;29.88;;
49015;SDS011;34830;44.064;12.566;2022-12-24T04:34:04;93.60;;;30.85;;
49015;SDS011;34830;44.064;12.566;2022-12-24T04:36:30;98.05;;;34.15;;
49015;SDS011;34830;44.064;12.566;2022-12-24T04:38:56;96.25;;;33.00;;
49015;SDS011;34830;44.064;12.566;2022-12-24T04:41:22;103.35;;;33.90;;
49015;SDS011;34830;44.064;12.566;2022-12-24T04:43:49;93.15;;;32.63;;
49015;SDS011;34830;44.064;12.566;2022-12-24T04:46:16;87.82;;;31.42;;
49015;SDS011;34830;44.064;12.566;2022-12-24T04:48:45;105.22;;;34.83;;
49015;SDS011;34830;44.064;12.566;2022-12-24T04:51:12;91.32;;;33.15;;
49015;SDS011;34830;44.064;12.566;2022-12-24T04:53:40;100.05;;;32.55;;
49015;SDS011;34830;44.064;12.566;2022-12-24T04:56:13;106.57;;;36.65;;
49015;SDS011;34830;44.064;12.566;2022-12-24T04:58:41;97.63;;;33.15;;
49015;SDS011;34830;44.064;12.566;2022-12-24T05:01:09;114.22;;;36.30;;
49015;SDS011;34830;44.064;12.566;2022-12-24T05:03:40;107.47;;;36.55;;
49015;SDS011;34830;44.064;12.566;2022-12-24T05:06:07;116.65;;;38.40;;
49015;SDS011;34830;44.064;12.566;2022-12-24T05:08:34;101.65;;;38.00;;
49015;SDS011;34830;44.064;12.566;2022-12-24T05:11:00;114.82;;;36.35;;
49015;SDS011;34830;44.064;12.566;2022-12-24T05:13:27;105.88;;;37.40;;
49015;SDS011;34830;44.064;12.566;2022-12-24T05:15:53;104.50;;;38.80;;
49015;SDS011;34830;44.064;12.566;2022-12-24T05:18:20;105.30;;;35.33;;
49015;SDS011;34830;44.064;12.566;2022-12-24T05:20:46;109.65;;;36.05;;
49015;SDS011;34830;44.064;12.566;2022-12-24T05:23:20;111.95;;;36.10;;
49015;SDS011;34830;44.064;12.566;2022-12-24T05:29:04;110.15;;;39.53;;
49015;SDS011;34830;44.064;12.566;2022-12-24T05:31:32;112.97;;;38.15;;
49015;SDS011;34830;44.064;12.566;2022-12-24T05:33:59;127.18;;;40.47;;
49015;SDS011;34830;44.064;12.566;2022-12-24T05:36:26;117.60;;;39.53;;
49015;SDS011;34830;44.064;12.566;2022-12-24T05:38:52;106.90;;;39.10;;
49015;SDS011;34830;44.064;12.566;2022-12-24T05:41:18;97.45;;;37.08;;
49015;SDS011;34830;44.064;12.566;2022-12-24T05:43:44;110.15;;;38.08;;
49015;SDS011;34830;44.064;12.566;2022-12-24T05:46:12;134.85;;;42.83;;
49015;SDS011;34830;44.064;12.566;2022-12-24T05:48:39;105.65;;;39.67;;
49015;SDS011;34830;44.064;12.566;2022-12-24T05:51:07;122.13;;;41.50;;
49015;SDS011;34830;44.064;12.566;2022-12-24T05:53:34;125.75;;;41.28;;
49015;SDS011;34830;44.064;12.566;2022-12-24T05:56:01;113.78;;;40.75;;
49015;SDS011;34830;44.064;12.566;2022-12-24T05:58:30;104.43;;;39.65;;
49015;SDS011;34830;44.064;12.566;2022-12-24T06:00:57;114.25;;;39.80;;
49015;SDS011;34830;44.064;12.566;2022-12-24T06:03:23;104.90;;;39.75;;
49015;SDS011;34830;44.064;12.566;2022-12-24T06:05:56;126.88;;;44.28;;
49015;SDS011;34830;44.064;12.566;2022-12-24T06:08:44;96.85;;;40.42;;
49015;SDS011;34830;44.064;12.566;2022-12-24T06:11:11;117.95;;;40.75;;
49015;SDS011;34830;44.064;12.566;2022-12-24T06:13:39;109.78;;;40.95;;
49015;SDS011;34830;44.064;12.566;2022-12-24T06:16:07;119.20;;;43.50;;
49015;SDS011;34830;44.064;12.566;2022-12-24T06:18:36;121.70;;;40.75;;
49015;SDS011;34830;44.064;12.566;2022-12-24T06:21:02;121.35;;;44.65;;
49015;SDS011;34830;44.064;12.566;2022-12-24T06:23:30;138.38;;;47.03;;
49015;SDS011;34830;44.064;12.566;2022-12-24T06:25:57;116.85;;;43.75;;
49015;SDS011;34830;44.064;12.566;2022-12-24T06:28:29;138.70;;;47.35;;
49015;SDS011;34830;44.064;12.566;2022-12-24T06:30:55;147.10;;;49.28;;
49015;SDS011;34830;44.064;12.566;2022-12-24T06:33:22;133.30;;;48.83;;
49015;SDS011;34830;44.064;12.566;2022-12-24T06:35:48;131.13;;;45.15;;
49015;SDS011;34830;44.064;12.566;2022-12-24T06:38:14;146.85;;;48.53;;
49015;SDS011;34830;44.064;12.566;2022-12-24T06:40:41;152.23;;;49.85;;
49015;SDS011;34830;44.064;12.566;2022-12-24T06:43:08;141.25;;;46.45;;
49015;SDS011;34830;44.064;12.566;2022-12-24T06:45:35;131.73;;;45.20;;
49015;SDS011;34830;44.064;12.566;2022-12-24T06:48:01;133.20;;;47.00;;
49015;SDS011;34830;44.064;12.566;2022-12-24T06:50:27;136.00;;;46.60;;
49015;SDS011;34830;44.064;12.566;2022-12-24T06:52:53;148.48;;;47.67;;
49015;SDS011;34830;44.064;12.566;2022-12-24T06:55:19;147.85;;;47.65;;
49015;SDS011;34830;44.064;12.566;2022-12-24T06:57:46;133.13;;;44.95;;
49015;SDS011;34830;44.064;12.566;2022-12-24T07:00:12;143.70;;;46.70;;
49015;SDS011;34830;44.064;12.566;2022-12-24T07:02:42;138.57;;;45.58;;
49015;SDS011;34830;44.064;12.566;2022-12-24T07:05:09;140.32;;;45.30;;
49015;SDS011;34830;44.064;12.566;2022-12-24T07:07:36;131.13;;;45.97;;
49015;SDS011;34830;44.064;12.566;2022-12-24T07:10:04;138.82;;;44.47;;
49015;SDS011;34830;44.064;12.566;2022-12-24T07:12:31;156.10;;;46.03;;
49015;SDS011;34830;44.064;12.566;2022-12-24T07:14:57;142.85;;;48.00;;
49015;SDS011;34830;44.064;12.566;2022-12-24T07:17:23;129.95;;;43.92;;
49015;SDS011;34830;44.064;12.566;2022-12-24T07:19:49;156.80;;;50.65;;
49015;SDS011;34830;44.064;12.566;2022-12-24T07:22:15;162.27;;;53.20;;
49015;SDS011;34830;44.064;12.566;2022-12-24T07:24:41;162.10;;;51.70;;
49015;SDS011;34830;44.064;12.566;2022-12-24T07:27:07;158.88;;;51.70;;
49015;SDS011;34830;44.064;12.566;2022-12-24T07:29:33;156.82;;;52.42;;
49015;SDS011;34830;44.064;12.566;2022-12-24T07:32:00;179.27;;;54.60;;
49015;SDS011;34830;44.064;12.566;2022-12-24T07:34:26;160.93;;;54.22;;
49015;SDS011;34830;44.064;12.566;2022-12-24T07:36:52;170.77;;;54.88;;
49015;SDS011;34830;44.064;12.566;2022-12-24T07:39:18;172.52;;;55.05;;
49015;SDS011;34830;44.064;12.566;2022-12-24T07:41:44;184.10;;;57.15;;
49015;SDS011;34830;44.064;12.566;2022-12-24T07:44:12;160.63;;;53.47;;
49015;SDS011;34830;44.064;12.566;2022-12-24T07:46:39;171.23;;;55.58;;
49015;SDS011;34830;44.064;12.566;2022-12-24T07:49:05;143.82;;;53.65;;
49015;SDS011;34830;44.064;12.566;2022-12-24T07:51:31;145.68;;;51.67;;
49015;SDS011;34830;44.064;12.566;2022-12-24T07:53:57;146.18;;;51.53;;
49015;SDS011;34830;44.064;12.566;2022-12-24T07:56:24;136.98;;;52.67;;
49015;SDS011;34830;44.064;12.566;2022-12-24T07:58:50;139.00;;;52.85;;
49015;SDS011;34830;44.064;12.566;2022-12-24T08:01:18;127.53;;;48.95;;
49015;SDS011;34830;44.064;12.566;2022-12-24T08:03:44;129.80;;;49.40;;
49015;SDS011;34830;44.064;12.566;2022-12-24T08:06:10;147.65;;;51.42;;
49015;SDS011;34830;44.064;12.566;2022-12-24T08:08:36;117.47;;;46.60;;
49015;SDS011;34830;44.064;12.566;2022-12-24T08:11:03;120.35;;;50.53;;
49015;SDS011;34830;44.064;12.566;2022-12-24T08:13:30;123.38;;;47.67;;
49015;SDS011;34830;44.064;12.566;2022-12-24T08:15:57;110.70;;;47.25;;
49015;SDS011;34830;44.064;12.566;2022-12-24T08:18:23;114.80;;;44.25;;
49015;SDS011;34830;44.064;12.566;2022-12-24T08:20:50;109.25;;;46.08;;
49015;SDS011;34830;44.064;12.566;2022-12-24T08:23:16;122.82;;;47.65;;
49015;SDS011;34830;44.064;12.566;2022-12-24T08:25:43;110.35;;;45.42;;
49015;SDS011;34830;44.064;12.566;2022-12-24T08:28:11;97.88;;;43.78;;
49015;SDS011;34830;44.064;12.566;2022-12-24T08:30:38;107.03;;;45.15;;
49015;SDS011;34830;44.064;12.566;2022-12-24T08:33:04;107.90;;;45.72;;
49015;SDS011;34830;44.064;12.566;2022-12-24T08:35:30;109.68;;;46.30;;
49015;SDS011;34830;44.064;12.566;2022-12-24T08:37:56;102.60;;;44.78;;
49015;SDS011;34830;44.064;12.566;2022-12-24T08:40:22;96.18;;;43.53;;
49015;SDS011;34830;44.064;12.566;2022-12-24T08:42:48;113.07;;;46.10;;
49015;SDS011;34830;44.064;12.566;2022-12-24T08:45:14;99.25;;;45.38;;
49015;SDS011;34830;44.064;12.566;2022-12-24T08:47:40;101.13;;;43.72;;
49015;SDS011;34830;44.064;12.566;2022-12-24T08:50:07;100.78;;;44.47;;
49015;SDS011;34830;44.064;12.566;2022-12-24T08:52:34;100.35;;;43.28;;
49015;SDS011;34830;44.064;12.566;2022-12-24T08:55:00;93.78;;;44.15;;
49015;SDS011;34830;44.064;12.566;2022-12-24T08:57:27;94.75;;;43.60;;
49015;SDS011;34830;44.064;12.566;2022-12-24T08:59:53;93.50;;;42.28;;
49015;SDS011;34830;44.064;12.566;2022-12-24T09:02:19;95.03;;;42.17;;
49015;SDS011;34830;44.064;12.566;2022-12-24T09:04:45;100.97;;;47.20;;
49015;SDS011;34830;44.064;12.566;2022-12-24T09:07:11;92.63;;;42.40;;
49015;SDS011;34830;44.064;12.566;2022-12-24T09:09:37;96.75;;;42.90;;
49015;SDS011;34830;44.064;12.566;2022-12-24T09:12:04;91.00;;;44.33;;
49015;SDS011;34830;44.064;12.566;2022-12-24T09:14:32;89.57;;;43.55;;
49015;SDS011;34830;44.064;12.566;2022-12-24T09:16:59;91.90;;;44.13;;
49015;SDS011;34830;44.064;12.566;2022-12-24T09:19:25;94.40;;;44.28;;
49015;SDS011;34830;44.064;12.566;2022-12-24T09:21:52;96.45;;;43.95;;
49015;SDS011;34830;44.064;12.566;2022-12-24T09:24:18;92.32;;;43.65;;
49015;SDS011;34830;44.064;12.566;2022-12-24T09:26:44;82.28;;;42.08;;
49015;SDS011;34830;44.064;12.566;2022-12-24T09:29:14;89.00;;;42.88;;
49015;SDS011;34830;44.064;12.566;2022-12-24T09:31:41;84.82;;;42.05;;
49015;SDS011;34830;44.064;12.566;2022-12-24T09:34:07;87.95;;;43.05;;
49015;SDS011;34830;44.064;12.566;2022-12-24T09:36:33;93.35;;;43.50;;
49015;SDS011;34830;44.064;12.566;2022-12-24T09:38:59;93.00;;;42.55;;
49015;SDS011;34830;44.064;12.566;2022-12-24T09:41:36;97.95;;;43.47;;
49015;SDS011;34830;44.064;12.566;2022-12-24T09:44:13;104.53;;;45.95;;
49015;SDS011;34830;44.064;12.566;2022-12-24T09:46:45;102.40;;;45.38;;
49015;SDS011;34830;44.064;12.566;2022-12-24T09:49:17;99.57;;;45.42;;
49015;SDS011;34830;44.064;12.566;2022-12-24T09:51:50;111.38;;;45.83;;
49015;SDS011;34830;44.064;12.566;2022-12-24T09:54:21;113.57;;;46.15;;
49015;SDS011;34830;44.064;12.566;2022-12-24T09:56:50;111.40;;;45.75;;
49015;SDS011;34830;44.064;12.566;2022-12-24T09:59:19;105.95;;;46.78;;
49015;SDS011;34830;44.064;12.566;2022-12-24T10:01:48;114.85;;;45.00;;
49015;SDS011;34830;44.064;12.566;2022-12-24T10:04:16;119.82;;;46.33;;
49015;SDS011;34830;44.064;12.566;2022-12-24T10:06:47;102.85;;;43.97;;
49015;SDS011;34830;44.064;12.566;2022-12-24T10:09:40;87.00;;;41.05;;
49015;SDS011;34830;44.064;12.566;2022-12-24T10:15:06;101.25;;;44.17;;
49015;SDS011;34830;44.064;12.566;2022-12-24T10:23:04;99.78;;;43.67;;
49015;SDS011;34830;44.064;12.566;2022-12-24T10:25:37;98.53;;;43.28;;
49015;SDS011;34830;44.064;12.566;2022-12-24T10:28:15;93.82;;;42.35;;
49015;SDS011;34830;44.064;12.566;2022-12-24T10:30:47;87.07;;;42.05;;
49015;SDS011;34830;44.064;12.566;2022-12-24T10:33:18;90.47;;;43.58;;
49015;SDS011;34830;44.064;12.566;2022-12-24T10:35:46;94.20;;;42.85;;
49015;SDS011;34830;44.064;12.566;2022-12-24T10:38:15;83.93;;;41.85;;
49015;SDS011;34830;44.064;12.566;2022-12-24T10:40:48;89.60;;;41.13;;
49015;SDS011;34830;44.064;12.566;2022-12-24T10:43:22;90.65;;;44.10;;
49015;SDS011;34830;44.064;12.566;2022-12-24T10:45:50;79.70;;;39.15;;
49015;SDS011;34830;44.064;12.566;2022-12-24T10:51:00;86.65;;;38.75;;
49015;SDS011;34830;44.064;12.566;2022-12-24T10:56:31;94.47;;;42.90;;
49015;SDS011;34830;44.064;12.566;2022-12-24T10:58:57;92.53;;;43.55;;
49015;SDS011;34830;44.064;12.566;2022-12-24T11:01:43;91.85;;;38.75;;
49015;SDS011;34830;44.064;12.566;2022-12-24T11:04:19;101.90;;;44.95;;
49015;SDS011;34830;44.064;12.566;2022-12-24T11:09:39;88.13;;;41.55;;
49015;SDS011;34830;44.064;12.566;2022-12-24T11:12:18;98.07;;;45.55;;
49015;SDS011;34830;44.064;12.566;2022-12-24T11:14:47;92.82;;;43.15;;
49015;SDS011;34830;44.064;12.566;2022-12-24T11:17:18;96.55;;;45.97;;
49015;SDS011;34830;44.064;12.566;2022-12-24T11:19:47;94.28;;;44.47;;
49015;SDS011;34830;44.064;12.566;2022-12-24T11:22:22;90.78;;;44.17;;
49015;SDS011;34830;44.064;12.566;2022-12-24T11:24:57;99.30;;;43.92;;
49015;SDS011;34830;44.064;12.566;2022-12-24T11:27:38;105.80;;;46.90;;
49015;SDS011;34830;44.064;12.566;2022-12-24T11:32:40;101.90;;;46.00;;
49015;SDS011;34830;44.064;12.566;2022-12-24T11:35:20;97.10;;;43.58;;
49015;SDS011;34830;44.064;12.566;2022-12-24T11:40:34;102.00;;;44.55;;
49015;SDS011;34830;44.064;12.566;2022-12-24T11:43:15;104.30;;;47.95;;
49015;SDS011;34830;44.064;12.566;2022-12-24T11:48:26;103.15;;;48.42;;
49015;SDS011;34830;44.064;12.566;2022-12-24T11:50:55;96.28;;;46.30;;
49015;SDS011;34830;44.064;12.566;2022-12-24T11:53:24;99.90;;;48.42;;
49015;SDS011;34830;44.064;12.566;2022-12-24T11:55:56;99.83;;;46.20;;
49015;SDS011;34830;44.064;12.566;2022-12-24T12:01:09;92.25;;;45.00;;
49015;SDS011;34830;44.064;12.566;2022-12-24T12:03:41;103.45;;;47.70;;
49015;SDS011;34830;44.064;12.566;2022-12-24T12:06:30;104.03;;;45.53;;
49015;SDS011;34830;44.064;12.566;2022-12-24T12:09:04;97.07;;;46.60;;
49015;SDS011;34830;44.064;12.566;2022-12-24T12:11:32;86.57;;;44.53;;
49015;SDS011;34830;44.064;12.566;2022-12-24T12:13:59;97.18;;;46.20;;
49015;SDS011;34830;44.064;12.566;2022-12-24T12:16:47;91.97;;;44.17;;
49015;SDS011;34830;44.064;12.566;2022-12-24T12:19:28;94.45;;;44.30;;
49015;SDS011;34830;44.064;12.566;2022-12-24T12:21:56;92.50;;;41.85;;
49015;SDS011;34830;44.064;12.566;2022-12-24T12:24:25;91.68;;;43.28;;
49015;SDS011;34830;44.064;12.566;2022-12-24T12:27:03;97.03;;;44.55;;
49015;SDS011;34830;44.064;12.566;2022-12-24T12:29:35;94.70;;;45.72;;
49015;SDS011;34830;44.064;12.566;2022-12-24T12:32:10;97.78;;;47.72;;
49015;SDS011;34830;44.064;12.566;2022-12-24T12:34:42;95.95;;;46.17;;
49015;SDS011;34830;44.064;12.566;2022-12-24T12:37:23;93.18;;;46.75;;
49015;SDS011;34830;44.064;12.566;2022-12-24T12:39:55;91.32;;;47.33;;
49015;SDS011;34830;44.064;12.566;2022-12-24T12:42:26;87.47;;;45.70;;
49015;SDS011;34830;44.064;12.566;2022-12-24T12:47:49;92.88;;;44.83;;
49015;SDS011;34830;44.064;12.566;2022-12-24T12:50:19;93.20;;;44.58;;
49015;SDS011;34830;44.064;12.566;2022-12-24T12:58:09;99.28;;;46.75;;
49015;SDS011;34830;44.064;12.566;2022-12-24T13:00:46;95.22;;;46.97;;
49015;SDS011;34830;44.064;12.566;2022-12-24T13:03:29;86.53;;;46.47;;
49015;SDS011;34830;44.064;12.566;2022-12-24T13:22:35;87.85;;;45.80;;
49015;SDS011;34830;44.064;12.566;2022-12-24T13:25:01;91.35;;;45.75;;
49015;SDS011;34830;44.064;12.566;2022-12-24T13:27:28;88.43;;;46.92;;
49015;SDS011;34830;44.064;12.566;2022-12-24T13:30:00;89.97;;;46.10;;
49015;SDS011;34830;44.064;12.566;2022-12-24T13:37:45;86.90;;;44.03;;
49015;SDS011;34830;44.064;12.566;2022-12-24T13:40:13;84.80;;;42.85;;
49015;SDS011;34830;44.064;12.566;2022-12-24T13:48:02;78.55;;;43.22;;
49015;SDS011;34830;44.064;12.566;2022-12-24T13:50:40;84.65;;;43.40;;
49015;SDS011;34830;44.064;12.566;2022-12-24T13:56:00;80.97;;;41.33;;
49015;SDS011;34830;44.064;12.566;2022-12-24T13:58:28;81.28;;;41.70;;
49015;SDS011;34830;44.064;12.566;2022-12-24T14:00:55;78.85;;;40.60;;
49015;SDS011;34830;44.064;12.566;2022-12-24T14:04:07;81.07;;;42.80;;
49015;SDS011;34830;44.064;12.566;2022-12-24T14:06:10;83.63;;;42.53;;
49015;SDS011;34830;44.064;12.566;2022-12-24T14:08:42;82.75;;;44.42;;
49015;SDS011;34830;44.064;12.566;2022-12-24T14:18:41;82.25;;;45.03;;
49015;SDS011;34830;44.064;12.566;2022-12-24T14:21:16;88.15;;;45.95;;
49015;SDS011;34830;44.064;12.566;2022-12-24T14:23:55;89.78;;;47.20;;
49015;SDS011;34830;44.064;12.566;2022-12-24T14:26:25;92.72;;;46.92;;
49015;SDS011;34830;44.064;12.566;2022-12-24T14:28:58;85.17;;;45.43;;
49015;SDS011;34830;44.064;12.566;2022-12-24T14:31:27;87.20;;;46.22;;
49015;SDS011;34830;44.064;12.566;2022-12-24T14:34:04;92.15;;;46.63;;
49015;SDS011;34830;44.064;12.566;2022-12-24T14:36:34;88.60;;;48.08;;
49015;SDS011;34830;44.064;12.566;2022-12-24T14:39:00;87.22;;;47.45;;
49015;SDS011;34830;44.064;12.566;2022-12-24T14:46:31;82.50;;;45.30;;
49015;SDS011;34830;44.064;12.566;2022-12-24T14:54:38;93.35;;;47.45;;
49015;SDS011;34830;44.064;12.566;2022-12-24T14:57:27;82.82;;;45.47;;
49015;SDS011;34830;44.064;12.566;2022-12-24T14:59:53;86.95;;;46.70;;
49015;SDS011;34830;44.064;12.566;2022-12-24T15:05:29;85.20;;;46.60;;
49015;SDS011;34830;44.064;12.566;2022-12-24T15:08:00;81.97;;;43.58;;
49015;SDS011;34830;44.064;12.566;2022-12-24T15:10:35;91.18;;;45.05;;
49015;SDS011;34830;44.064;12.566;2022-12-24T15:13:05;83.38;;;44.40;;
49015;SDS011;34830;44.064;12.566;2022-12-24T15:15:33;88.75;;;46.92;;
49015;SDS011;34830;44.064;12.566;2022-12-24T15:18:02;91.40;;;48.08;;
49015;SDS011;34830;44.064;12.566;2022-12-24T15:20:28;89.25;;;45.70;;
49015;SDS011;34830;44.064;12.566;2022-12-24T15:22:57;96.30;;;48.15;;
49015;SDS011;34830;44.064;12.566;2022-12-24T15:25:28;86.90;;;48.83;;
49015;SDS011;34830;44.064;12.566;2022-12-24T15:27:55;91.10;;;45.63;;
49015;SDS011;34830;44.064;12.566;2022-12-24T15:30:23;90.75;;;46.33;;
49015;SDS011;34830;44.064;12.566;2022-12-24T15:32:54;94.32;;;49.03;;
49015;SDS011;34830;44.064;12.566;2022-12-24T15:35:29;93.90;;;48.53;;
49015;SDS011;34830;44.064;12.566;2022-12-24T15:38:24;93.72;;;48.75;;
49015;SDS011;34830;44.064;12.566;2022-12-24T15:40:55;88.10;;;46.97;;
49015;SDS011;34830;44.064;12.566;2022-12-24T15:43:22;89.65;;;47.08;;
49015;SDS011;34830;44.064;12.566;2022-12-24T15:45:49;89.25;;;48.42;;
49015;SDS011;34830;44.064;12.566;2022-12-24T15:48:20;99.03;;;49.35;;
49015;SDS011;34830;44.064;12.566;2022-12-24T15:50:50;94.88;;;49.92;;
49015;SDS011;34830;44.064;12.566;2022-12-24T15:53:21;95.53;;;48.17;;
49015;SDS011;34830;44.064;12.566;2022-12-24T15:58:37;91.90;;;47.00;;
49015;SDS011;34830;44.064;12.566;2022-12-24T16:03:37;83.88;;;44.28;;
49015;SDS011;34830;44.064;12.566;2022-12-24T16:06:07;91.90;;;47.65;;
49015;SDS011;34830;44.064;12.566;2022-12-24T16:08:37;92.57;;;46.80;;
49015;SDS011;34830;44.064;12.566;2022-12-24T16:13:31;85.40;;;45.28;;